createdAt,value
2023-05-03T00:00:04.322Z,0.1
2023-05-03T00:01:09.195Z,0.4
2023-05-03T00:02:03.320Z,1.0
2023-05-03T00:03:03.246Z,0.5
2023-05-03T00:04:03.947Z,0.4
2023-05-03T00:05:05.291Z,0.6
2023-05-03T00:06:12.847Z,0.4
2023-05-03T00:07:03.414Z,0.7
2023-05-03T00:08:03.011Z,1.2
2023-05-03T00:09:03.720Z,0.4
2023-05-03T00:10:04.328Z,0.1
2023-05-03T00:11:03.463Z,0.6
2023-05-03T00:12:03.781Z,1.1
2023-05-03T00:13:03.873Z,1.0
2023-05-03T00:14:03.673Z,0.4
2023-05-03T00:15:03.756Z,0.4
2023-05-03T00:16:03.345Z,1.1
2023-05-03T00:17:03.103Z,0.2
2023-05-03T00:18:03.846Z,0.7
2023-05-03T00:19:03.593Z,0.4
2023-05-03T00:20:04.500Z,0.2
2023-05-03T00:21:03.324Z,0.6
2023-05-03T00:22:02.930Z,0.0
2023-05-03T00:23:03.664Z,0.8
2023-05-03T00:24:03.719Z,0.1
2023-05-03T00:25:03.456Z,0.1
2023-05-03T00:26:03.096Z,0.2
2023-05-03T00:27:04.118Z,0.1
2023-05-03T00:28:03.734Z,0.5
2023-05-03T00:29:03.387Z,0.2
2023-05-03T00:30:04.038Z,0.7
2023-05-03T00:31:06.224Z,0.3
2023-05-03T00:32:03.812Z,0.4
2023-05-03T00:33:03.543Z,0.2
2023-05-03T00:34:03.339Z,0.2
2023-05-03T00:35:03.297Z,0.2
2023-05-03T00:36:07.273Z,0.8
2023-05-03T00:37:03.636Z,0.3
2023-05-03T00:38:03.488Z,0.2
2023-05-03T00:39:03.264Z,0.2
2023-05-03T00:40:03.611Z,0.7
2023-05-03T00:41:03.810Z,0.6
2023-05-03T00:42:03.509Z,0.5
2023-05-03T00:43:03.315Z,0.6
2023-05-03T00:44:03.123Z,0.2
2023-05-03T00:45:03.159Z,0.1
2023-05-03T00:46:12.885Z,0.2
2023-05-03T00:47:03.529Z,0.7
2023-05-03T00:48:03.375Z,0.0
2023-05-03T00:49:03.117Z,0.2
2023-05-03T00:50:04.464Z,0.1
2023-05-03T00:51:04.874Z,0.4
2023-05-03T00:52:03.408Z,0.0
2023-05-03T00:53:03.283Z,0.2
2023-05-03T00:54:03.382Z,0.1
2023-05-03T00:55:04.146Z,0.1
2023-05-03T00:56:03.602Z,0.0
2023-05-03T00:57:03.791Z,0.5
2023-05-03T00:58:03.116Z,0.1
2023-05-03T00:59:04.751Z,0.8
2023-05-03T01:00:04.237Z,0.6
2023-05-03T01:01:03.405Z,0.3
2023-05-03T01:02:03.329Z,0.3
2023-05-03T01:03:03.206Z,0.1
2023-05-03T01:04:05.451Z,0.6
2023-05-03T01:05:03.818Z,0.0
2023-05-03T01:06:17.054Z,0.0
2023-05-03T01:07:17.092Z,0.5
2023-05-03T01:08:07.905Z,0.9
2023-05-03T01:09:21.964Z,0.1
2023-05-03T01:10:17.037Z,1.1
2023-05-03T01:11:11.000Z,0.0
2023-05-03T01:12:08.118Z,0.4
2023-05-03T01:13:17.494Z,0.3
2023-05-03T01:14:11.003Z,0.4
2023-05-03T01:15:16.694Z,0.2
2023-05-03T01:16:10.931Z,0.4
2023-05-03T01:17:07.884Z,0.6
2023-05-03T01:18:06.382Z,0.3
2023-05-03T01:19:04.274Z,0.6
2023-05-03T01:20:05.610Z,0.3
2023-05-03T01:21:03.925Z,0.9
2023-05-03T01:22:14.399Z,0.1
2023-05-03T01:23:08.579Z,0.9
2023-05-03T01:24:06.781Z,1.6
2023-05-03T01:25:10.170Z,0.2
2023-05-03T01:26:15.431Z,0.9
2023-05-03T01:27:03.754Z,0.4
2023-05-03T01:28:03.553Z,0.3
2023-05-03T01:29:03.382Z,0.7
2023-05-03T01:30:06.562Z,0.4
2023-05-03T01:31:02.952Z,0.0
2023-05-03T01:32:06.373Z,0.0
2023-05-03T01:33:08.431Z,0.5
2023-05-03T01:34:24.627Z,0.0
2023-05-03T01:35:13.518Z,0.1
2023-05-03T01:36:15.371Z,0.0
2023-05-03T01:37:03.757Z,0.1
2023-05-03T01:38:04.167Z,0.2
2023-05-03T01:39:05.483Z,0.1
2023-05-03T01:40:03.784Z,0.0
2023-05-03T01:41:08.625Z,0.3
2023-05-03T01:42:04.255Z,0.3
2023-05-03T01:43:03.380Z,0.2
2023-05-03T01:44:03.288Z,0.5
2023-05-03T01:45:06.384Z,0.1
2023-05-03T01:46:03.852Z,0.2
2023-05-03T01:47:03.486Z,0.0
2023-05-03T01:48:07.922Z,0.1
2023-05-03T01:49:03.045Z,0.4
2023-05-03T01:50:04.273Z,1.0
2023-05-03T01:51:03.598Z,0.4
2023-05-03T01:52:03.477Z,0.1
2023-05-03T01:53:03.247Z,0.3
2023-05-03T01:54:03.163Z,0.4
2023-05-03T01:55:05.656Z,0.6
2023-05-03T01:56:03.665Z,0.0
2023-05-03T01:57:03.394Z,0.0
2023-05-03T01:58:03.159Z,0.0
2023-05-03T01:59:03.132Z,0.3
2023-05-03T02:00:04.357Z,0.6
2023-05-03T02:01:04.061Z,0.2
2023-05-03T02:02:03.273Z,1.0
2023-05-03T02:03:03.200Z,0.2
2023-05-03T02:04:03.801Z,0.2
2023-05-03T02:05:03.847Z,0.2
2023-05-03T02:06:03.607Z,0.3
2023-05-03T02:07:03.243Z,0.2
2023-05-03T02:08:02.991Z,0.3
2023-05-03T02:09:03.711Z,0.5
2023-05-03T02:10:06.958Z,0.0
2023-05-03T02:11:03.384Z,0.2
2023-05-03T02:12:03.330Z,0.2
2023-05-03T02:13:02.973Z,0.5
2023-05-03T02:14:03.639Z,0.6
2023-05-03T02:15:03.835Z,0.9
2023-05-03T02:16:03.326Z,0.4
2023-05-03T02:17:03.190Z,1.5
2023-05-03T02:18:04.089Z,1.0
2023-05-03T02:19:03.616Z,1.0
2023-05-03T02:20:04.191Z,0.3
2023-05-03T02:21:03.529Z,0.0
2023-05-03T02:22:03.118Z,0.6
2023-05-03T02:23:03.749Z,0.4
2023-05-03T02:24:03.828Z,0.2
2023-05-03T02:25:03.541Z,1.1
2023-05-03T02:26:03.131Z,0.5
2023-05-03T02:27:02.980Z,0.4
2023-05-03T02:28:03.792Z,0.2
2023-05-03T02:29:03.477Z,0.6
2023-05-03T02:30:03.900Z,0.1
2023-05-03T02:31:03.194Z,0.2
2023-05-03T02:32:03.849Z,0.2
2023-05-03T02:33:03.618Z,0.2
2023-05-03T02:34:03.499Z,0.5
2023-05-03T02:35:03.389Z,0.3
2023-05-03T02:36:03.158Z,0.0
2023-05-03T02:37:03.720Z,0.6
2023-05-03T02:38:03.542Z,0.0
2023-05-03T02:39:03.354Z,0.1
2023-05-03T02:40:03.660Z,0.0
2023-05-03T02:41:02.931Z,0.2
2023-05-03T02:42:03.577Z,0.1
2023-05-03T02:43:03.526Z,0.6
2023-05-03T02:44:03.242Z,0.2
2023-05-03T02:45:03.309Z,0.0
2023-05-03T02:46:03.786Z,0.0
2023-05-03T02:47:03.547Z,0.0
2023-05-03T02:48:03.509Z,0.0
2023-05-03T02:49:03.154Z,0.0
2023-05-03T02:50:03.473Z,0.0
2023-05-03T02:51:04.470Z,0.0
2023-05-03T02:52:03.455Z,0.0
2023-05-03T02:53:03.279Z,0.0
2023-05-03T02:54:03.120Z,0.5
2023-05-03T02:55:04.268Z,0.4
2023-05-03T02:56:03.772Z,0.0
2023-05-03T02:57:03.452Z,0.1
2023-05-03T02:58:03.236Z,0.0
2023-05-03T02:59:03.190Z,0.2
2023-05-03T03:00:04.393Z,0.6
2023-05-03T03:01:03.535Z,0.1
2023-05-03T03:02:03.356Z,0.2
2023-05-03T03:03:03.137Z,0.2
2023-05-03T03:04:03.154Z,0.4
2023-05-03T03:05:03.841Z,0.0
2023-05-03T03:06:03.551Z,0.1
2023-05-03T03:07:03.240Z,0.0
2023-05-03T03:08:03.192Z,0.0
2023-05-03T03:09:03.745Z,0.2
2023-05-03T03:10:04.110Z,0.4
2023-05-03T03:11:04.276Z,0.2
2023-05-03T03:12:03.345Z,0.0
2023-05-03T03:13:03.102Z,0.0
2023-05-03T03:14:03.712Z,0.1
2023-05-03T03:15:04.000Z,0.1
2023-05-03T03:16:03.555Z,0.0
2023-05-03T03:17:06.355Z,0.1
2023-05-03T03:18:02.947Z,0.2
2023-05-03T03:19:03.554Z,0.6
2023-05-03T03:20:04.417Z,0.7
2023-05-03T03:21:03.403Z,0.0
2023-05-03T03:22:02.963Z,0.0
2023-05-03T03:23:03.715Z,0.0
2023-05-03T03:24:03.643Z,0.0
2023-05-03T03:25:03.886Z,0.0
2023-05-03T03:26:03.236Z,0.3
2023-05-03T03:27:03.008Z,0.7
2023-05-03T03:28:03.763Z,0.0
2023-05-03T03:29:03.435Z,0.7
2023-05-03T03:30:03.918Z,0.2
2023-05-03T03:31:03.108Z,0.5
2023-05-03T03:32:04.065Z,0.0
2023-05-03T03:33:03.603Z,0.2
2023-05-03T03:34:03.316Z,0.4
2023-05-03T03:35:03.332Z,0.6
2023-05-03T03:36:03.098Z,0.5
2023-05-03T03:37:03.682Z,0.1
2023-05-03T03:38:03.551Z,0.0
2023-05-03T03:39:03.210Z,0.1
2023-05-03T03:40:03.634Z,0.3
2023-05-03T03:41:03.910Z,0.0
2023-05-03T03:42:03.693Z,0.0
2023-05-03T03:43:03.454Z,0.3
2023-05-03T03:44:03.256Z,0.3
2023-05-03T03:45:03.280Z,0.0
2023-05-03T03:46:03.893Z,0.0
2023-05-03T03:47:03.552Z,0.0
2023-05-03T03:48:03.402Z,0.0
2023-05-03T03:49:03.043Z,0.4
2023-05-03T03:50:04.434Z,0.0
2023-05-03T03:51:03.644Z,0.0
2023-05-03T03:52:03.520Z,0.0
2023-05-03T03:53:03.180Z,0.2
2023-05-03T03:54:03.086Z,0.1
2023-05-03T03:55:03.990Z,0.1
2023-05-03T03:56:03.699Z,0.0
2023-05-03T03:57:03.304Z,0.7
2023-05-03T03:58:03.136Z,0.6
2023-05-03T03:59:03.870Z,0.2
2023-05-03T04:00:04.252Z,0.0
2023-05-03T04:01:03.637Z,0.0
2023-05-03T04:02:03.354Z,0.1
2023-05-03T04:03:06.683Z,0.0
2023-05-03T04:04:03.913Z,0.3
2023-05-03T04:05:03.675Z,0.1
2023-05-03T04:06:03.455Z,0.2
2023-05-03T04:07:03.196Z,0.0
2023-05-03T04:08:04.178Z,0.0
2023-05-03T04:09:03.614Z,0.0
2023-05-03T04:10:04.051Z,0.0
2023-05-03T04:11:03.516Z,0.2
2023-05-03T04:12:03.325Z,0.0
2023-05-03T04:13:03.753Z,0.0
2023-05-03T04:14:03.576Z,0.4
2023-05-03T04:15:03.652Z,0.2
2023-05-03T04:16:04.743Z,0.0
2023-05-03T04:17:03.911Z,0.0
2023-05-03T04:18:03.740Z,0.0
2023-05-03T04:19:03.376Z,0.0
2023-05-03T04:20:03.731Z,0.2
2023-05-03T04:21:03.092Z,0.2
2023-05-03T04:22:03.863Z,0.0
2023-05-03T04:23:03.497Z,0.5
2023-05-03T04:24:03.442Z,0.0
2023-05-03T04:25:03.345Z,0.0
2023-05-03T04:26:05.018Z,0.0
2023-05-03T04:27:03.664Z,0.0
2023-05-03T04:28:03.730Z,0.1
2023-05-03T04:29:03.263Z,0.0
2023-05-03T04:30:03.998Z,0.0
2023-05-03T04:31:04.020Z,0.0
2023-05-03T04:32:03.718Z,0.1
2023-05-03T04:33:03.433Z,0.0
2023-05-03T04:34:03.215Z,0.0
2023-05-03T04:35:03.966Z,0.0
2023-05-03T04:36:03.713Z,0.1
2023-05-03T04:37:03.410Z,0.0
2023-05-03T04:38:03.327Z,0.1
2023-05-03T04:39:03.125Z,0.1
2023-05-03T04:40:04.596Z,0.4
2023-05-03T04:41:03.518Z,0.2
2023-05-03T04:42:03.390Z,0.2
2023-05-03T04:43:03.107Z,0.0
2023-05-03T04:44:04.317Z,0.0
2023-05-03T04:45:04.097Z,0.2
2023-05-03T04:46:03.563Z,0.5
2023-05-03T04:47:03.234Z,0.5
2023-05-03T04:48:03.283Z,0.0
2023-05-03T04:49:03.713Z,0.0
2023-05-03T04:50:04.194Z,0.1
2023-05-03T04:51:03.651Z,0.0
2023-05-03T04:52:03.257Z,0.0
2023-05-03T04:53:03.844Z,0.0
2023-05-03T04:54:03.753Z,0.2
2023-05-03T04:55:03.677Z,0.1
2023-05-03T04:56:03.517Z,0.0
2023-05-03T04:57:03.135Z,0.0
2023-05-03T04:58:03.711Z,0.0
2023-05-03T04:59:03.515Z,0.0
2023-05-03T05:00:04.077Z,0.0
2023-05-03T05:01:03.170Z,0.0
2023-05-03T05:02:03.997Z,0.0
2023-05-03T05:03:03.754Z,0.0
2023-05-03T05:04:03.552Z,0.0
2023-05-03T05:05:03.389Z,0.0
2023-05-03T05:06:03.286Z,0.0
2023-05-03T05:07:03.699Z,0.0
2023-05-03T05:08:03.543Z,0.0
2023-05-03T05:09:06.481Z,0.0
2023-05-03T05:10:03.548Z,0.0
2023-05-03T05:11:03.931Z,0.0
2023-05-03T05:12:03.881Z,0.0
2023-05-03T05:13:03.530Z,0.1
2023-05-03T05:14:03.232Z,0.0
2023-05-03T05:15:03.393Z,0.2
2023-05-03T05:16:04.060Z,0.0
2023-05-03T05:17:03.554Z,0.0
2023-05-03T05:18:03.421Z,0.3
2023-05-03T05:19:03.163Z,0.0
2023-05-03T05:20:03.531Z,0.0
2023-05-03T05:21:04.056Z,0.0
2023-05-03T05:22:03.706Z,0.0
2023-05-03T05:23:03.361Z,0.2
2023-05-03T05:24:03.204Z,0.0
2023-05-03T05:25:03.259Z,0.3
2023-05-03T05:26:03.702Z,0.0
2023-05-03T05:27:03.475Z,0.0
2023-05-03T05:28:03.260Z,0.0
2023-05-03T05:29:03.067Z,0.0
2023-05-03T05:30:04.527Z,0.4
2023-05-03T05:31:03.664Z,0.0
2023-05-03T05:32:03.780Z,0.2
2023-05-03T05:33:03.304Z,0.0
2023-05-03T05:34:03.173Z,0.5
2023-05-03T05:35:03.993Z,0.1
2023-05-03T05:36:03.947Z,0.0
2023-05-03T05:37:03.339Z,0.3
2023-05-03T05:38:03.246Z,0.1
2023-05-03T05:39:03.016Z,0.3
2023-05-03T05:40:04.436Z,0.0
2023-05-03T05:41:04.575Z,0.9
2023-05-03T05:42:03.442Z,0.2
2023-05-03T05:43:03.395Z,0.7
2023-05-03T05:44:03.031Z,0.2
2023-05-03T05:45:04.039Z,0.0
2023-05-03T05:46:03.533Z,0.9
2023-05-03T05:47:03.320Z,0.1
2023-05-03T05:48:03.235Z,0.1
2023-05-03T05:49:03.781Z,0.0
2023-05-03T05:50:09.630Z,0.0
2023-05-03T05:51:03.632Z,0.2
2023-05-03T05:52:03.209Z,0.1
2023-05-03T05:53:02.949Z,0.0
2023-05-03T05:54:03.633Z,0.0
2023-05-03T05:55:03.676Z,0.1
2023-05-03T05:56:03.397Z,0.0
2023-05-03T05:57:03.165Z,0.2
2023-05-03T05:58:03.783Z,0.2
2023-05-03T05:59:03.645Z,0.0
2023-05-03T06:00:03.982Z,0.2
2023-05-03T06:01:03.360Z,0.2
2023-05-03T06:02:03.219Z,0.1
2023-05-03T06:03:04.133Z,0.0
2023-05-03T06:04:03.653Z,0.0
2023-05-03T06:05:04.439Z,0.0
2023-05-03T06:06:03.209Z,0.0
2023-05-03T06:07:03.909Z,0.0
2023-05-03T06:08:03.737Z,0.0
2023-05-03T06:09:16.662Z,0.0
2023-05-03T06:10:04.155Z,0.0
2023-05-03T06:11:03.096Z,0.1
2023-05-03T06:12:03.887Z,0.5
2023-05-03T06:13:03.525Z,0.0
2023-05-03T06:14:03.267Z,0.3
2023-05-03T06:15:03.716Z,0.1
2023-05-03T06:16:03.072Z,0.0
2023-05-03T06:17:03.665Z,0.0
2023-05-03T06:18:03.554Z,0.0
2023-05-03T06:19:03.273Z,0.0
2023-05-03T06:20:03.622Z,0.1
2023-05-03T06:21:03.969Z,0.9
2023-05-03T06:22:03.991Z,0.0
2023-05-03T06:23:03.386Z,0.1
2023-05-03T06:24:03.293Z,0.0
2023-05-03T06:25:03.213Z,0.0
2023-05-03T06:26:03.736Z,0.0
2023-05-03T06:27:03.450Z,0.0
2023-05-03T06:28:03.459Z,0.0
2023-05-03T06:29:03.103Z,0.0
2023-05-03T06:30:04.417Z,0.0
2023-05-03T06:31:03.686Z,0.0
2023-05-03T06:32:03.680Z,0.1
2023-05-03T06:33:03.368Z,0.0
2023-05-03T06:34:03.000Z,0.0
2023-05-03T06:35:03.984Z,0.2
2023-05-03T06:36:03.824Z,0.7
2023-05-03T06:37:03.339Z,0.0
2023-05-03T06:38:03.080Z,0.0
2023-05-03T06:39:02.906Z,0.0
2023-05-03T06:40:04.087Z,0.3
2023-05-03T06:41:03.427Z,0.2
2023-05-03T06:42:03.313Z,0.1
2023-05-03T06:43:03.024Z,0.3
2023-05-03T06:44:03.864Z,0.2
2023-05-03T06:45:03.837Z,0.6
2023-05-03T06:46:03.484Z,0.2
2023-05-03T06:47:03.270Z,0.5
2023-05-03T06:48:03.333Z,0.6
2023-05-03T06:49:03.691Z,0.8
2023-05-03T06:50:04.098Z,0.4
2023-05-03T06:51:03.371Z,0.4
2023-05-03T06:52:03.230Z,0.5
2023-05-03T06:53:03.861Z,0.4
2023-05-03T06:54:03.665Z,1.0
2023-05-03T06:55:03.559Z,0.4
2023-05-03T06:56:03.474Z,0.3
2023-05-03T06:57:03.011Z,0.1
2023-05-03T06:58:04.172Z,0.0
2023-05-03T06:59:03.460Z,1.1
2023-05-03T07:00:03.773Z,0.6
2023-05-03T07:01:03.025Z,0.7
2023-05-03T07:02:03.984Z,1.5
2023-05-03T07:03:04.110Z,0.9
2023-05-03T07:04:03.665Z,1.0
2023-05-03T07:05:03.435Z,0.5
2023-05-03T07:06:03.211Z,0.5
2023-05-03T07:07:03.764Z,0.4
2023-05-03T07:08:03.678Z,1.1
2023-05-03T07:09:03.412Z,1.2
2023-05-03T07:10:03.503Z,0.2
2023-05-03T07:11:03.862Z,0.9
2023-05-03T07:12:03.960Z,1.0
2023-05-03T07:13:03.464Z,1.5
2023-05-03T07:14:03.222Z,1.2
2023-05-03T07:15:03.231Z,0.8
2023-05-03T07:16:04.044Z,1.1
2023-05-03T07:17:03.488Z,0.5
2023-05-03T07:18:03.345Z,1.2
2023-05-03T07:19:03.104Z,0.7
2023-05-03T07:20:03.353Z,0.6
2023-05-03T07:21:03.947Z,0.6
2023-05-03T07:22:03.513Z,1.8
2023-05-03T07:23:03.376Z,0.1
2023-05-03T07:24:03.133Z,1.0
2023-05-03T07:25:04.058Z,0.3
2023-05-03T07:26:03.599Z,1.9
2023-05-03T07:27:03.414Z,1.5
2023-05-03T07:28:03.211Z,0.9
2023-05-03T07:29:02.943Z,2.1
2023-05-03T07:30:04.424Z,1.8
2023-05-03T07:31:03.734Z,0.9
2023-05-03T07:32:03.503Z,0.8
2023-05-03T07:33:03.368Z,1.3
2023-05-03T07:34:03.799Z,2.0
2023-05-03T07:35:03.987Z,0.9
2023-05-03T07:36:04.081Z,0.6
2023-05-03T07:37:03.232Z,1.1
2023-05-03T07:38:03.047Z,1.6
2023-05-03T07:39:03.762Z,3.4
2023-05-03T07:40:05.286Z,1.2
2023-05-03T07:41:03.434Z,0.9
2023-05-03T07:42:03.188Z,1.1
2023-05-03T07:43:02.939Z,1.6
2023-05-03T07:44:03.802Z,1.1
2023-05-03T07:45:03.711Z,1.6
2023-05-03T07:46:04.247Z,1.1
2023-05-03T07:47:03.040Z,0.9
2023-05-03T07:48:04.178Z,1.4
2023-05-03T07:49:04.263Z,1.1
2023-05-03T07:50:03.788Z,1.6
2023-05-03T07:51:04.129Z,1.1
2023-05-03T07:52:02.983Z,0.7
2023-05-03T07:53:03.692Z,0.5
2023-05-03T07:54:03.483Z,2.7
2023-05-03T07:55:03.658Z,2.1
2023-05-03T07:56:03.287Z,1.5
2023-05-03T07:57:04.038Z,2.4
2023-05-03T07:58:03.775Z,1.2
2023-05-03T08:00:03.725Z,1.6
2023-05-03T08:01:03.157Z,1.2
2023-05-03T08:02:03.991Z,0.4
2023-05-03T08:03:03.646Z,1.5
2023-05-03T08:04:03.848Z,1.0
2023-05-03T08:05:03.679Z,2.0
2023-05-03T08:06:03.130Z,1.1
2023-05-03T08:07:03.663Z,0.6
2023-05-03T08:08:03.617Z,1.7
2023-05-03T08:09:03.516Z,0.5
2023-05-03T08:10:03.508Z,0.7
2023-05-03T08:11:03.736Z,2.8
2023-05-03T08:12:03.650Z,1.6
2023-05-03T08:13:04.100Z,0.6
2023-05-03T08:14:03.162Z,0.7
2023-05-03T08:15:03.126Z,0.7
2023-05-03T08:16:03.910Z,0.9
2023-05-03T08:17:03.498Z,0.3
2023-05-03T08:18:03.334Z,0.9
2023-05-03T08:19:03.238Z,0.8
2023-05-03T08:20:04.342Z,1.9
2023-05-03T08:21:03.535Z,2.0
2023-05-03T08:22:03.342Z,1.1
2023-05-03T08:23:03.228Z,1.5
2023-05-03T08:24:03.055Z,0.5
2023-05-03T08:25:03.977Z,0.7
2023-05-03T08:26:03.902Z,1.0
2023-05-03T08:27:03.426Z,0.0
2023-05-03T08:28:03.182Z,0.9
2023-05-03T08:29:03.125Z,0.8
2023-05-03T08:30:04.386Z,1.2
2023-05-03T08:31:03.495Z,0.9
2023-05-03T08:32:03.593Z,0.2
2023-05-03T08:33:03.129Z,1.4
2023-05-03T08:34:04.101Z,1.5
2023-05-03T08:35:03.752Z,1.3
2023-05-03T08:36:03.597Z,0.4
2023-05-03T08:37:03.205Z,1.4
2023-05-03T08:38:02.977Z,0.9
2023-05-03T08:39:04.670Z,0.7
2023-05-03T08:40:04.094Z,0.6
2023-05-03T08:41:08.154Z,1.0
2023-05-03T08:42:06.710Z,1.3
2023-05-03T08:43:06.631Z,0.5
2023-05-03T08:44:03.693Z,1.6
2023-05-03T08:45:04.448Z,1.7
2023-05-03T08:46:03.588Z,0.4
2023-05-03T08:47:03.390Z,1.1
2023-05-03T08:48:05.364Z,0.7
2023-05-03T08:49:03.717Z,0.7
2023-05-03T08:50:04.424Z,0.0
2023-05-03T08:51:03.910Z,0.9
2023-05-03T08:52:04.585Z,0.7
2023-05-03T08:53:03.626Z,0.4
2023-05-03T08:54:03.522Z,1.1
2023-05-03T08:55:03.553Z,1.3
2023-05-03T08:56:06.807Z,0.6
2023-05-03T08:57:07.304Z,0.9
2023-05-03T08:58:06.486Z,0.3
2023-05-03T08:59:04.401Z,0.4
2023-05-03T09:00:08.335Z,1.1
2023-05-03T09:01:06.303Z,0.1
2023-05-03T09:02:03.916Z,1.1
2023-05-03T09:03:03.615Z,0.1
2023-05-03T09:04:03.819Z,0.0
2023-05-03T09:05:03.532Z,0.8
2023-05-03T09:06:08.797Z,0.7
2023-05-03T09:07:06.678Z,1.1
2023-05-03T09:08:05.407Z,0.5
2023-05-03T09:09:04.263Z,1.1
2023-05-03T09:10:07.882Z,1.5
2023-05-03T09:11:03.889Z,1.0
2023-05-03T09:12:04.428Z,0.5
2023-05-03T09:13:03.352Z,1.9
2023-05-03T09:14:13.162Z,1.1
2023-05-03T09:15:03.272Z,1.1
2023-05-03T09:16:03.848Z,1.3
2023-05-03T09:17:16.576Z,0.7
2023-05-03T09:18:06.527Z,0.2
2023-05-03T09:19:04.264Z,0.0
2023-05-03T09:20:04.537Z,0.1
2023-05-03T09:21:03.771Z,0.3
2023-05-03T09:22:06.331Z,0.1
2023-05-03T09:23:03.272Z,0.6
2023-05-03T09:24:07.976Z,0.5
2023-05-03T09:25:04.071Z,0.6
2023-05-03T09:26:03.578Z,0.6
2023-05-03T09:27:08.288Z,0.1
2023-05-03T09:28:03.277Z,1.4
2023-05-03T09:29:03.617Z,0.8
2023-05-03T09:30:18.350Z,0.7
2023-05-03T09:31:04.545Z,1.6
2023-05-03T09:32:04.104Z,0.4
2023-05-03T09:33:03.204Z,1.1
2023-05-03T09:34:08.591Z,0.5
2023-05-03T09:35:09.356Z,0.1
2023-05-03T09:36:04.105Z,0.5
2023-05-03T09:37:03.185Z,0.7
2023-05-03T09:38:03.728Z,0.6
2023-05-03T09:39:08.569Z,0.4
2023-05-03T09:40:06.748Z,0.7
2023-05-03T09:41:03.467Z,0.7
2023-05-03T09:42:07.947Z,0.4
2023-05-03T09:43:04.987Z,0.1
2023-05-03T09:44:03.643Z,2.1
2023-05-03T09:45:04.123Z,1.8
2023-05-03T09:46:09.717Z,2.4
2023-05-03T09:47:06.260Z,3.6
2023-05-03T09:48:05.421Z,2.8
2023-05-03T09:49:03.883Z,1.7
2023-05-03T09:50:03.550Z,3.5
2023-05-03T09:51:03.364Z,3.5
2023-05-03T09:52:03.302Z,2.0
2023-05-03T09:53:04.146Z,2.2
2023-05-03T09:54:03.479Z,1.8
2023-05-03T09:55:03.798Z,1.4
2023-05-03T09:56:03.997Z,1.7
2023-05-03T09:57:04.464Z,3.0
2023-05-03T09:58:04.198Z,2.4
2023-05-03T09:59:03.341Z,2.2
2023-05-03T10:00:03.450Z,2.6
2023-05-03T10:01:03.217Z,1.7
2023-05-03T10:02:04.587Z,0.6
2023-05-03T10:03:09.945Z,1.6
2023-05-03T10:04:03.798Z,2.7
2023-05-03T10:05:04.448Z,1.2
2023-05-03T10:06:05.623Z,1.0
2023-05-03T10:07:06.349Z,2.1
2023-05-03T10:08:03.620Z,1.6
2023-05-03T10:09:14.105Z,0.8
2023-05-03T10:10:03.261Z,1.1
2023-05-03T10:11:04.345Z,1.0
2023-05-03T10:12:04.128Z,1.3
2023-05-03T10:13:03.374Z,1.2
2023-05-03T10:14:05.794Z,2.1
2023-05-03T10:15:06.127Z,1.5
2023-05-03T10:16:07.762Z,1.5
2023-05-03T10:17:04.968Z,0.6
2023-05-03T10:18:04.886Z,0.8
2023-05-03T10:19:24.264Z,2.0
2023-05-03T10:20:14.251Z,1.5
2023-05-03T10:21:06.459Z,1.4
2023-05-03T10:22:04.310Z,2.0
2023-05-03T10:23:06.764Z,0.8
2023-05-03T10:24:08.713Z,1.9
2023-05-03T10:25:06.764Z,1.5
2023-05-03T10:26:11.126Z,1.4
2023-05-03T10:27:06.267Z,1.6
2023-05-03T10:28:03.812Z,0.2
2023-05-03T10:29:04.419Z,0.7
2023-05-03T10:30:05.541Z,1.8
2023-05-03T10:31:03.417Z,1.1
2023-05-03T10:32:03.806Z,2.3
2023-05-03T10:33:17.622Z,0.4
2023-05-03T10:34:08.524Z,0.8
2023-05-03T10:35:07.857Z,0.9
2023-05-03T10:36:06.953Z,1.6
2023-05-03T10:37:07.806Z,1.8
2023-05-03T10:38:08.603Z,2.1
2023-05-03T10:39:03.592Z,0.3
2023-05-03T10:40:13.668Z,0.4
2023-05-03T10:41:03.201Z,0.4
2023-05-03T10:42:03.955Z,0.6
2023-05-03T10:43:03.664Z,0.9
2023-05-03T10:44:03.626Z,1.8
2023-05-03T10:45:04.017Z,0.3
2023-05-03T10:46:03.729Z,0.2
2023-05-03T10:47:12.696Z,0.6
2023-05-03T10:48:15.255Z,1.1
2023-05-03T10:49:08.238Z,0.8
2023-05-03T10:50:19.615Z,2.1
2023-05-03T10:51:21.069Z,0.8
2023-05-03T10:52:08.600Z,0.9
2023-05-03T10:53:03.749Z,0.6
2023-05-03T10:54:03.416Z,0.7
2023-05-03T10:55:11.181Z,1.4
2023-05-03T10:56:04.284Z,0.5
2023-05-03T10:57:03.270Z,0.6
2023-05-03T10:58:03.997Z,0.8
2023-05-03T10:59:03.697Z,1.4
2023-05-03T11:00:07.498Z,0.9
2023-05-03T11:01:08.292Z,1.3
2023-05-03T11:02:03.631Z,0.2
2023-05-03T11:03:22.690Z,1.2
2023-05-03T11:04:14.147Z,0.2
2023-05-03T11:05:07.793Z,1.4
2023-05-03T11:06:03.507Z,1.1
2023-05-03T11:07:03.127Z,1.2
2023-05-03T11:08:09.963Z,1.6
2023-05-03T11:09:05.080Z,1.2
2023-05-03T11:10:16.124Z,0.8
2023-05-03T11:11:03.638Z,2.0
2023-05-03T11:12:03.637Z,1.3
2023-05-03T11:13:03.806Z,1.9
2023-05-03T11:14:04.376Z,0.9
2023-05-03T11:15:03.751Z,0.3
2023-05-03T11:16:03.939Z,0.6
2023-05-03T11:17:03.047Z,0.6
2023-05-03T11:18:06.892Z,1.4
2023-05-03T11:19:03.541Z,3.0
2023-05-03T11:20:05.413Z,1.1
2023-05-03T11:21:03.163Z,1.1
2023-05-03T11:22:03.874Z,1.0
2023-05-03T11:23:04.066Z,1.2
2023-05-03T11:24:03.545Z,1.8
2023-05-03T11:25:03.692Z,2.2
2023-05-03T11:26:05.199Z,1.3
2023-05-03T11:27:08.622Z,1.6
2023-05-03T11:28:03.570Z,2.1
2023-05-03T11:29:03.308Z,1.6
2023-05-03T11:30:05.226Z,2.3
2023-05-03T11:31:04.125Z,1.0
2023-05-03T11:32:03.834Z,1.1
2023-05-03T11:33:03.616Z,1.3
2023-05-03T11:34:04.413Z,2.5
2023-05-03T11:35:03.400Z,1.0
2023-05-03T11:36:04.739Z,3.0
2023-05-03T11:37:03.612Z,2.3
2023-05-03T11:38:03.295Z,1.0
2023-05-03T11:39:03.376Z,0.6
2023-05-03T11:40:03.282Z,1.9
2023-05-03T11:41:14.136Z,2.0
2023-05-03T11:42:03.570Z,4.3
2023-05-03T11:43:03.272Z,1.5
2023-05-03T11:44:15.256Z,0.9
2023-05-03T11:45:03.766Z,1.3
2023-05-03T11:46:03.862Z,0.9
2023-05-03T11:47:04.102Z,1.5
2023-05-03T11:48:03.356Z,1.5
2023-05-03T11:49:03.080Z,1.4
2023-05-03T11:50:03.930Z,1.3
2023-05-03T11:51:07.536Z,1.2
2023-05-03T11:52:03.503Z,0.5
2023-05-03T11:53:03.370Z,1.0
2023-05-03T11:54:10.137Z,0.9
2023-05-03T11:55:04.338Z,0.5
2023-05-03T11:56:05.909Z,1.4
2023-05-03T11:57:08.086Z,0.6
2023-05-03T11:58:02.979Z,1.2
2023-05-03T11:59:03.692Z,1.1
2023-05-03T12:00:13.100Z,1.4
2023-05-03T12:01:03.570Z,1.3
2023-05-03T12:02:03.246Z,1.1
2023-05-03T12:03:03.209Z,1.1
2023-05-03T12:04:04.261Z,1.1
2023-05-03T12:05:05.413Z,1.3
2023-05-03T12:06:04.614Z,1.3
2023-05-03T12:07:04.653Z,0.9
2023-05-03T12:08:05.148Z,1.0
2023-05-03T12:09:03.939Z,3.0
2023-05-03T12:10:19.637Z,2.0
2023-05-03T12:11:03.995Z,1.4
2023-05-03T12:12:05.431Z,1.5
2023-05-03T12:13:05.091Z,0.9
2023-05-03T12:14:03.792Z,1.5
2023-05-03T12:15:04.919Z,0.8
2023-05-03T12:17:03.886Z,1.3
2023-05-03T12:18:10.432Z,1.3
2023-05-03T12:19:03.606Z,0.6
2023-05-03T12:21:29.491Z,1.7
2023-05-03T12:22:23.860Z,1.4
2023-05-03T12:23:04.845Z,0.5
2023-05-03T12:24:05.899Z,0.5
2023-05-03T12:25:04.418Z,1.0
2023-05-03T12:26:05.422Z,1.2
2023-05-03T12:27:03.798Z,0.6
2023-05-03T12:29:04.840Z,1.4
2023-05-03T12:30:03.562Z,0.7
2023-05-03T12:31:05.134Z,0.7
2023-05-03T12:32:04.418Z,0.9
2023-05-03T12:33:04.882Z,0.9
2023-05-03T12:34:29.185Z,0.4
2023-05-03T12:35:08.149Z,1.1
2023-05-03T12:36:04.527Z,1.1
2023-05-03T12:37:04.817Z,1.3
2023-05-03T12:38:03.587Z,0.5
2023-05-03T12:39:03.359Z,0.9
2023-05-03T12:41:03.563Z,0.6
2023-05-03T12:42:06.978Z,0.5
2023-05-03T12:43:03.140Z,0.5
2023-05-03T12:44:04.084Z,1.7
2023-05-03T12:45:04.951Z,0.4
2023-05-03T12:47:03.567Z,0.4
2023-05-03T12:48:03.370Z,0.8
2023-05-03T12:49:06.876Z,0.8
2023-05-03T12:50:06.341Z,1.7
2023-05-03T12:51:18.512Z,0.4
2023-05-03T12:53:08.511Z,1.0
2023-05-03T12:54:04.120Z,1.7
2023-05-03T12:55:04.653Z,0.9
2023-05-03T12:56:06.469Z,2.4
2023-05-03T12:57:06.290Z,0.3
2023-05-03T12:59:31.702Z,0.6
2023-05-03T13:00:04.715Z,1.1
2023-05-03T13:01:46.515Z,0.5
2023-05-03T13:05:11.323Z,0.3
2023-05-03T13:06:11.867Z,0.9
2023-05-03T13:07:04.265Z,0.9
2023-05-03T13:08:08.940Z,0.4
2023-05-03T13:09:04.004Z,0.8
2023-05-03T13:11:03.809Z,1.5
2023-05-03T13:12:03.736Z,3.1
2023-05-03T13:13:03.382Z,1.3
2023-05-03T13:14:03.219Z,0.5
2023-05-03T13:15:03.896Z,0.4
2023-05-03T13:16:03.979Z,0.7
2023-05-03T13:17:03.540Z,0.4
2023-05-03T13:18:06.154Z,0.7
2023-05-03T13:19:03.069Z,1.2
2023-05-03T13:20:04.284Z,1.0
2023-05-03T13:21:03.756Z,0.2
2023-05-03T13:22:03.426Z,0.4
2023-05-03T13:23:03.200Z,0.1
2023-05-03T13:24:03.328Z,0.5
2023-05-03T13:25:04.983Z,0.3
2023-05-03T13:26:03.428Z,0.2
2023-05-03T13:27:03.596Z,0.4
2023-05-03T13:28:03.078Z,0.8
2023-05-03T13:29:03.810Z,1.4
2023-05-03T13:30:03.925Z,0.4
2023-05-03T13:31:03.449Z,0.9
2023-05-03T13:32:03.703Z,1.6
2023-05-03T13:33:03.020Z,1.0
2023-05-03T13:34:03.713Z,1.0
2023-05-03T13:35:04.003Z,2.7
2023-05-03T13:36:03.618Z,1.2
2023-05-03T13:37:03.298Z,1.3
2023-05-03T13:38:04.014Z,0.7
2023-05-03T13:39:03.611Z,0.4
2023-05-03T13:40:03.886Z,0.3
2023-05-03T13:41:06.612Z,2.5
2023-05-03T13:42:03.083Z,0.4
2023-05-03T13:43:03.657Z,1.6
2023-05-03T13:44:03.550Z,0.8
2023-05-03T13:45:03.575Z,1.8
2023-05-03T13:46:03.142Z,1.9
2023-05-03T13:47:03.917Z,1.2
2023-05-03T13:48:18.622Z,1.1
2023-05-03T13:49:04.029Z,0.4
2023-05-03T13:50:03.620Z,0.4
2023-05-03T13:51:06.729Z,0.9
2023-05-03T13:52:03.980Z,0.1
2023-05-03T13:53:03.563Z,1.1
2023-05-03T13:54:04.426Z,0.5
2023-05-03T13:55:03.605Z,0.6
2023-05-03T13:56:04.605Z,0.7
2023-05-03T13:57:03.627Z,1.0
2023-05-03T13:58:04.017Z,0.4